Uhland, Texas
Current Conditions -  °F | °C
As of 2:48 PM on Tuesday 21 Oct 2014 (Local Time) from KHYI Reporting Station
Clear Clear  
Wind Chill: 82°   Ceiling: Unl
Heat Index: 82°   Visibility: 10mi
Dew Point: 54°   Wind: 7mph
Humidity: 37%   Direction: 70°ENE
Pressure: 30.01"   Gusts: NA
Location:  29.9978°N, 97.835°W
Report Text: KHYI 211948Z 07006KT 10SM CLR 28/12 A3001
Loading
Personal Weather Stations






























Interactive Weather Map
Tropical Storm Tracking
New forecast layout! Learn more

10-Day Weather Forecast

Advertisements
Track Severe Weather on mobile